createdAt,value
2023-02-28T00:00:25.151Z,1005.29
2023-02-28T00:01:25.141Z,1005.26
2023-02-28T00:02:25.223Z,1005.29
2023-02-28T00:03:25.200Z,1005.26
2023-02-28T00:04:25.123Z,1005.27
2023-02-28T00:05:25.120Z,1005.23
2023-02-28T00:06:25.129Z,1005.23
2023-02-28T00:07:25.111Z,1005.30
2023-02-28T00:08:25.121Z,1005.25
2023-02-28T00:09:25.090Z,1005.33
2023-02-28T00:10:25.086Z,1005.27
2023-02-28T00:11:25.081Z,1005.26
2023-02-28T00:12:25.060Z,1005.28
2023-02-28T00:13:25.091Z,1005.28
2023-02-28T00:14:25.052Z,1005.27
2023-02-28T00:15:25.059Z,1005.25
2023-02-28T00:16:25.094Z,1005.22
2023-02-28T00:17:25.033Z,1005.25
2023-02-28T00:18:25.065Z,1005.26
2023-02-28T00:19:25.020Z,1005.22
2023-02-28T00:20:25.000Z,1005.18
2023-02-28T00:21:25.001Z,1005.23
2023-02-28T00:22:24.996Z,1005.22
2023-02-28T00:23:25.019Z,1005.19
2023-02-28T00:24:24.996Z,1005.22
2023-02-28T00:25:25.020Z,1005.19
2023-02-28T00:26:24.962Z,1005.16
2023-02-28T00:27:24.963Z,1005.11
2023-02-28T00:28:24.974Z,1005.19
2023-02-28T00:29:24.944Z,1005.20
2023-02-28T00:30:24.947Z,1005.14
2023-02-28T00:31:24.924Z,1005.26
2023-02-28T00:32:24.923Z,1005.18
2023-02-28T00:33:24.954Z,1005.18
2023-02-28T00:34:24.905Z,1005.20
2023-02-28T00:35:24.928Z,1005.27
2023-02-28T00:36:24.910Z,1005.16
2023-02-28T00:37:24.883Z,1005.13
2023-02-28T00:38:24.909Z,1005.19
2023-02-28T00:39:24.888Z,1005.19
2023-02-28T00:40:24.866Z,1005.23
2023-02-28T00:41:24.863Z,1005.23
2023-02-28T00:42:24.851Z,1005.23
2023-02-28T00:43:24.870Z,1005.19
2023-02-28T00:44:24.839Z,1005.26
2023-02-28T00:45:24.833Z,1005.24
2023-02-28T00:46:24.870Z,1005.20
2023-02-28T00:47:24.819Z,1005.31
2023-02-28T00:48:24.830Z,1005.21
2023-02-28T00:49:24.802Z,1005.19
2023-02-28T00:50:24.796Z,1005.21
2023-02-28T00:51:24.817Z,1005.22
2023-02-28T00:52:24.775Z,1005.22
2023-02-28T00:53:24.794Z,1005.25
2023-02-28T00:54:24.753Z,1005.13
2023-02-28T00:55:24.748Z,1005.18
2023-02-28T00:56:24.739Z,1005.13
2023-02-28T00:57:24.743Z,1005.15
2023-02-28T00:58:24.754Z,1005.15
2023-02-28T00:59:24.716Z,1005.05
2023-02-28T01:00:24.724Z,1005.20
2023-02-28T01:01:24.726Z,1005.14
2023-02-28T01:02:24.697Z,1005.12
2023-02-28T01:03:24.716Z,1005.11
2023-02-28T01:04:24.731Z,1005.12
2023-02-28T01:05:24.674Z,1005.18
2023-02-28T01:06:25.675Z,1005.06
2023-02-28T01:07:24.658Z,1005.09
2023-02-28T01:08:24.672Z,1005.14
2023-02-28T01:09:24.650Z,1005.06
2023-02-28T01:10:24.644Z,1005.12
2023-02-28T01:11:24.636Z,1004.99
2023-02-28T01:12:24.627Z,1005.04
2023-02-28T01:13:24.644Z,1005.10
2023-02-28T01:14:24.619Z,1005.10
2023-02-28T01:15:24.631Z,1005.02
2023-02-28T01:16:24.608Z,1005.06
2023-02-28T01:17:24.589Z,1005.13
2023-02-28T01:18:24.619Z,1005.07
2023-02-28T01:19:24.573Z,1005.02
2023-02-28T01:20:24.559Z,1005.09
2023-02-28T01:21:24.551Z,1005.04
2023-02-28T01:22:24.546Z,1005.06
2023-02-28T01:23:24.605Z,1005.07
2023-02-28T01:24:24.543Z,1005.10
2023-02-28T01:25:25.210Z,1005.11
2023-02-28T01:26:24.526Z,1005.10
2023-02-28T01:27:24.519Z,1005.00
2023-02-28T01:28:24.543Z,1005.10
2023-02-28T01:29:24.499Z,1005.07
2023-02-28T01:30:24.497Z,1005.21
2023-02-28T01:31:24.520Z,1005.11
2023-02-28T01:32:24.529Z,1005.08
2023-02-28T01:33:24.473Z,1005.11
2023-02-28T01:34:24.502Z,1005.08
2023-02-28T01:35:24.454Z,1005.06
2023-02-28T01:36:24.487Z,1005.06
2023-02-28T01:37:24.444Z,1005.06
2023-02-28T01:38:24.437Z,1005.11
2023-02-28T01:39:24.463Z,1005.12
2023-02-28T01:40:24.438Z,1005.12
2023-02-28T01:41:24.409Z,1005.01
2023-02-28T01:42:24.413Z,1005.05
2023-02-28T01:43:24.414Z,1005.04
2023-02-28T01:44:24.420Z,1005.03
2023-02-28T01:45:24.382Z,1004.98
2023-02-28T01:46:24.430Z,1005.04
2023-02-28T01:47:24.371Z,1005.01
2023-02-28T01:48:24.361Z,1005.04
2023-02-28T01:49:24.398Z,1004.97
2023-02-28T01:50:24.341Z,1004.99
2023-02-28T01:51:24.342Z,1004.98
2023-02-28T01:52:24.331Z,1005.01
2023-02-28T01:53:24.324Z,1004.99
2023-02-28T01:54:24.344Z,1004.98
2023-02-28T01:55:24.306Z,1005.02
2023-02-28T01:56:24.302Z,1004.98
2023-02-28T01:57:24.292Z,1004.99
2023-02-28T01:58:24.284Z,1004.98
2023-02-28T01:59:24.309Z,1004.95
2023-02-28T02:00:24.283Z,1004.96
2023-02-28T02:01:24.324Z,1004.93
2023-02-28T02:02:24.287Z,1004.95
2023-02-28T02:03:24.253Z,1004.88
2023-02-28T02:04:24.270Z,1004.89
2023-02-28T02:05:24.237Z,1004.89
2023-02-28T02:06:24.226Z,1004.84
2023-02-28T02:07:24.227Z,1004.82
2023-02-28T02:08:24.224Z,1004.89
2023-02-28T02:09:24.234Z,1004.87
2023-02-28T02:10:24.192Z,1004.94
2023-02-28T02:11:25.212Z,1004.85
2023-02-28T02:12:24.190Z,1004.89
2023-02-28T02:13:24.184Z,1004.86
2023-02-28T02:14:24.204Z,1004.88
2023-02-28T02:15:24.175Z,1004.87
2023-02-28T02:16:24.248Z,1004.87
2023-02-28T02:17:24.167Z,1004.82
2023-02-28T02:18:24.147Z,1004.86
2023-02-28T02:19:24.180Z,1004.77
2023-02-28T02:20:24.136Z,1004.77
2023-02-28T02:21:24.129Z,1004.88
2023-02-28T02:22:24.116Z,1004.78
2023-02-28T02:23:24.117Z,1004.79
2023-02-28T02:24:24.133Z,1004.77
2023-02-28T02:25:24.099Z,1004.85
2023-02-28T02:26:24.088Z,1004.82
2023-02-28T02:27:24.084Z,1004.78
2023-02-28T02:28:24.081Z,1004.85
2023-02-28T02:29:24.094Z,1004.83
2023-02-28T02:30:24.060Z,1004.83
2023-02-28T02:31:24.095Z,1004.79
2023-02-28T02:32:24.080Z,1004.78
2023-02-28T02:33:24.041Z,1004.82
2023-02-28T02:34:24.058Z,1004.77
2023-02-28T02:35:24.015Z,1004.78
2023-02-28T02:36:24.008Z,1004.81
2023-02-28T02:37:24.004Z,1004.80
2023-02-28T02:38:24.007Z,1004.76
2023-02-28T02:39:23.991Z,1004.83
2023-02-28T02:40:24.016Z,1004.82
2023-02-28T02:41:23.973Z,1004.76
2023-02-28T02:42:23.970Z,1004.80
2023-02-28T02:43:23.977Z,1004.79
2023-02-28T02:44:23.989Z,1004.69
2023-02-28T02:45:23.942Z,1004.79
2023-02-28T02:46:23.948Z,1004.82
2023-02-28T02:47:23.923Z,1004.79
2023-02-28T02:48:23.930Z,1004.76
2023-02-28T02:49:23.911Z,1004.82
2023-02-28T02:50:23.938Z,1004.73
2023-02-28T02:51:23.909Z,1004.78
2023-02-28T02:52:23.889Z,1004.76
2023-02-28T02:53:23.879Z,1004.73
2023-02-28T02:54:23.874Z,1004.77
2023-02-28T02:55:23.900Z,1004.78
2023-02-28T02:56:23.862Z,1004.78
2023-02-28T02:57:23.847Z,1004.84
2023-02-28T02:58:23.846Z,1004.79
2023-02-28T02:59:23.847Z,1004.82
2023-02-28T03:00:23.862Z,1004.85
2023-02-28T03:01:23.825Z,1004.78
2023-02-28T03:02:23.822Z,1004.80
2023-02-28T03:03:23.816Z,1004.76
2023-02-28T03:04:23.812Z,1004.85
2023-02-28T03:05:23.856Z,1004.79
2023-02-28T03:06:23.800Z,1004.81
2023-02-28T03:07:23.784Z,1004.85
2023-02-28T03:08:23.792Z,1004.77
2023-02-28T03:09:23.772Z,1004.82
2023-02-28T03:10:23.785Z,1004.87
2023-02-28T03:11:23.764Z,1004.80
2023-02-28T03:12:23.743Z,1004.84
2023-02-28T03:13:23.750Z,1004.79
2023-02-28T03:14:23.729Z,1004.80
2023-02-28T03:15:23.752Z,1004.78
2023-02-28T03:16:23.765Z,1004.83
2023-02-28T03:17:23.712Z,1004.79
2023-02-28T03:18:23.698Z,1004.78
2023-02-28T03:19:23.688Z,1004.80
2023-02-28T03:20:23.710Z,1004.81
2023-02-28T03:21:23.681Z,1004.75
2023-02-28T03:22:23.669Z,1004.74
2023-02-28T03:23:23.663Z,1004.75
2023-02-28T03:24:23.685Z,1004.75
2023-02-28T03:25:23.687Z,1004.81
2023-02-28T03:26:23.647Z,1004.76
2023-02-28T03:27:23.643Z,1004.76
2023-02-28T03:28:23.638Z,1004.79
2023-02-28T03:29:23.630Z,1004.78
2023-02-28T03:30:23.645Z,1004.80
2023-02-28T03:31:23.634Z,1004.83
2023-02-28T03:32:23.629Z,1004.79
2023-02-28T03:33:23.594Z,1004.77
2023-02-28T03:34:23.588Z,1004.81
2023-02-28T03:35:23.685Z,1004.73
2023-02-28T03:36:23.569Z,1004.71
2023-02-28T03:37:23.591Z,1004.77
2023-02-28T03:38:23.562Z,1004.76
2023-02-28T03:39:23.550Z,1004.78
2023-02-28T03:40:23.576Z,1004.75
2023-02-28T03:41:23.552Z,1004.79
2023-02-28T03:42:23.523Z,1004.77
2023-02-28T03:43:23.526Z,1004.70
2023-02-28T03:44:23.509Z,1004.78
2023-02-28T03:45:23.561Z,1004.76
2023-02-28T03:46:23.502Z,1004.69
2023-02-28T03:47:23.487Z,1004.74
2023-02-28T03:48:23.479Z,1004.74
2023-02-28T03:49:23.480Z,1004.70
2023-02-28T03:50:23.488Z,1004.70
2023-02-28T03:51:23.460Z,1004.68
2023-02-28T03:52:23.453Z,1004.66
2023-02-28T03:53:23.443Z,1004.69
2023-02-28T03:54:23.447Z,1004.62
2023-02-28T03:55:23.447Z,1004.59
2023-02-28T03:56:23.422Z,1004.63
2023-02-28T03:57:23.416Z,1004.65
2023-02-28T03:58:23.404Z,1004.66
2023-02-28T03:59:23.402Z,1004.73
2023-02-28T04:00:23.419Z,1004.77
2023-02-28T04:01:23.437Z,1004.77
2023-02-28T04:02:23.370Z,1004.75
2023-02-28T04:03:23.367Z,1004.75
2023-02-28T04:04:23.385Z,1004.79
2023-02-28T04:05:23.380Z,1004.82
2023-02-28T04:06:23.358Z,1004.75
2023-02-28T04:07:23.382Z,1004.76
2023-02-28T04:08:23.333Z,1004.73
2023-02-28T04:09:23.314Z,1004.78
2023-02-28T04:10:24.355Z,1004.79
2023-02-28T04:11:23.303Z,1004.85
2023-02-28T04:12:23.299Z,1004.77
2023-02-28T04:13:23.290Z,1004.74
2023-02-28T04:14:23.286Z,1004.75
2023-02-28T04:15:23.315Z,1004.80
2023-02-28T04:16:34.310Z,1004.71
2023-02-28T04:17:25.270Z,1004.71
2023-02-28T04:18:23.268Z,1004.72
2023-02-28T04:19:23.253Z,1004.70
2023-02-28T04:20:24.283Z,1004.77
2023-02-28T04:21:23.252Z,1004.77
2023-02-28T04:22:23.236Z,1004.74
2023-02-28T04:23:23.221Z,1004.79
2023-02-28T04:24:23.223Z,1004.76
2023-02-28T04:25:23.211Z,1004.76
2023-02-28T04:26:23.241Z,1004.79
2023-02-28T04:27:23.202Z,1004.69
2023-02-28T04:28:23.186Z,1004.75
2023-02-28T04:29:23.178Z,1004.78
2023-02-28T04:30:23.179Z,1004.77
2023-02-28T04:31:23.210Z,1004.76
2023-02-28T04:32:23.200Z,1004.74
2023-02-28T04:33:23.153Z,1004.83
2023-02-28T04:34:23.140Z,1004.82
2023-02-28T04:35:23.194Z,1004.80
2023-02-28T04:36:23.156Z,1004.85
2023-02-28T04:37:23.127Z,1004.83
2023-02-28T04:38:23.115Z,1004.85
2023-02-28T04:39:23.107Z,1004.80
2023-02-28T04:40:23.105Z,1004.79
2023-02-28T04:41:23.114Z,1004.85
2023-02-28T04:42:23.082Z,1004.86
2023-02-28T04:43:23.076Z,1004.90
2023-02-28T04:44:23.071Z,1004.86
2023-02-28T04:45:23.061Z,1004.81
2023-02-28T04:46:23.090Z,1004.81
2023-02-28T04:47:23.082Z,1004.81
2023-02-28T04:48:23.039Z,1004.90
2023-02-28T04:49:23.046Z,1004.81
2023-02-28T04:50:23.024Z,1004.80
2023-02-28T04:51:23.060Z,1004.87
2023-02-28T04:52:23.022Z,1004.95
2023-02-28T04:53:22.998Z,1004.88
2023-02-28T04:54:22.996Z,1005.02
2023-02-28T04:55:23.002Z,1004.90
2023-02-28T04:56:23.012Z,1004.91
2023-02-28T04:57:22.990Z,1004.95
2023-02-28T04:58:22.973Z,1004.95
2023-02-28T04:59:22.959Z,1004.96
2023-02-28T05:00:22.949Z,1004.97
2023-02-28T05:01:22.970Z,1004.95
2023-02-28T05:02:23.022Z,1004.99
2023-02-28T05:03:22.928Z,1004.95
2023-02-28T05:04:22.990Z,1004.97
2023-02-28T05:05:22.936Z,1004.99
2023-02-28T05:06:22.936Z,1004.89
2023-02-28T05:07:22.897Z,1004.96
2023-02-28T05:08:22.900Z,1005.01
2023-02-28T05:09:22.879Z,1004.99
2023-02-28T05:10:22.880Z,1004.97
2023-02-28T05:11:22.900Z,1004.99
2023-02-28T05:12:22.856Z,1005.01
2023-02-28T05:13:22.851Z,1005.05
2023-02-28T05:14:22.851Z,1005.02
2023-02-28T05:15:22.848Z,1005.03
2023-02-28T05:16:22.922Z,1005.07
2023-02-28T05:17:23.829Z,1005.07
2023-02-28T05:18:22.855Z,1005.09
2023-02-28T05:19:22.805Z,1005.04
2023-02-28T05:20:22.803Z,1005.04
2023-02-28T05:21:22.837Z,1005.04
2023-02-28T05:22:22.788Z,1005.11
2023-02-28T05:23:22.774Z,1005.05
2023-02-28T05:24:22.833Z,1005.03
2023-02-28T05:25:22.769Z,1005.08
2023-02-28T05:26:22.799Z,1005.07
2023-02-28T05:27:22.751Z,1005.11
2023-02-28T05:28:22.739Z,1005.15
2023-02-28T05:29:22.742Z,1005.16
2023-02-28T05:30:22.737Z,1005.07
2023-02-28T05:31:22.759Z,1005.03
2023-02-28T05:32:22.790Z,1005.12
2023-02-28T05:33:22.752Z,1005.11
2023-02-28T05:34:22.699Z,1005.10
2023-02-28T05:35:22.777Z,1005.15
2023-02-28T05:36:22.719Z,1005.12
2023-02-28T05:37:22.826Z,1005.10
2023-02-28T05:38:23.676Z,1005.10
2023-02-28T05:39:22.656Z,1005.18
2023-02-28T05:40:22.660Z,1005.14
2023-02-28T05:41:22.651Z,1005.15
2023-02-28T05:42:22.674Z,1005.17
2023-02-28T05:43:22.638Z,1005.16
2023-02-28T05:44:22.629Z,1005.10
2023-02-28T05:45:22.625Z,1005.14
2023-02-28T05:46:22.624Z,1005.13
2023-02-28T05:47:22.641Z,1005.15
2023-02-28T05:48:22.646Z,1005.12
2023-02-28T05:49:22.586Z,1005.08
2023-02-28T05:50:22.585Z,1005.11
2023-02-28T05:51:22.575Z,1005.18
2023-02-28T05:52:22.590Z,1005.12
2023-02-28T05:53:22.565Z,1005.12
2023-02-28T05:54:22.553Z,1005.11
2023-02-28T05:55:22.545Z,1005.19
2023-02-28T05:56:22.545Z,1005.13
2023-02-28T05:57:24.677Z,1005.11
2023-02-28T05:58:23.524Z,1005.10
2023-02-28T05:59:22.516Z,1005.16
2023-02-28T06:00:22.508Z,1005.14
2023-02-28T06:01:22.502Z,1005.09
2023-02-28T06:02:22.565Z,1005.18
2023-02-28T06:03:22.553Z,1005.20
2023-02-28T06:04:31.626Z,1005.18
2023-02-28T06:05:24.474Z,1005.25
2023-02-28T06:06:22.470Z,1005.18
2023-02-28T06:07:22.481Z,1005.20
2023-02-28T06:08:22.468Z,1005.16
2023-02-28T06:09:22.444Z,1005.20
2023-02-28T06:10:22.457Z,1005.22
2023-02-28T06:11:22.436Z,1005.26
2023-02-28T06:12:22.450Z,1005.26
2023-02-28T06:13:22.416Z,1005.32
2023-02-28T06:14:22.412Z,1005.32
2023-02-28T06:15:22.401Z,1005.33
2023-02-28T06:16:22.460Z,1005.26
2023-02-28T06:17:22.530Z,1005.25
2023-02-28T06:18:22.386Z,1005.33
2023-02-28T06:19:22.373Z,1005.30
2023-02-28T06:20:22.365Z,1005.34
2023-02-28T06:21:22.356Z,1005.35
2023-02-28T06:22:22.373Z,1005.39
2023-02-28T06:23:22.346Z,1005.35
2023-02-28T06:24:22.339Z,1005.31
2023-02-28T06:25:22.356Z,1005.37
2023-02-28T06:26:22.328Z,1005.43
2023-02-28T06:27:22.341Z,1005.43
2023-02-28T06:28:22.304Z,1005.45
2023-02-28T06:29:22.299Z,1005.41
2023-02-28T06:30:22.291Z,1005.41
2023-02-28T06:31:22.336Z,1005.44
2023-02-28T06:32:23.332Z,1005.42
2023-02-28T06:33:22.278Z,1005.48
2023-02-28T06:34:22.264Z,1005.49
2023-02-28T06:35:22.362Z,1005.51
2023-02-28T06:36:22.249Z,1005.49
2023-02-28T06:37:22.270Z,1005.47
2023-02-28T06:38:22.238Z,1005.51
2023-02-28T06:39:22.240Z,1005.56
2023-02-28T06:40:22.224Z,1005.52
2023-02-28T06:41:22.215Z,1005.47
2023-02-28T06:42:22.235Z,1005.58
2023-02-28T06:43:22.205Z,1005.58
2023-02-28T06:44:22.203Z,1005.64
2023-02-28T06:45:22.187Z,1005.60
2023-02-28T06:46:22.371Z,1005.64
2023-02-28T06:47:22.194Z,1005.61
2023-02-28T06:48:22.181Z,1005.64
2023-02-28T06:49:22.164Z,1005.57
2023-02-28T06:50:22.147Z,1005.55
2023-02-28T06:51:22.139Z,1005.57
2023-02-28T06:52:22.191Z,1005.57
2023-02-28T06:53:22.125Z,1005.51
2023-02-28T06:54:22.117Z,1005.61
2023-02-28T06:55:22.105Z,1005.67
2023-02-28T06:56:22.129Z,1005.68
2023-02-28T06:57:22.127Z,1005.65
2023-02-28T06:58:22.089Z,1005.65
2023-02-28T06:59:22.094Z,1005.71
2023-02-28T07:00:22.078Z,1005.72
2023-02-28T07:01:22.084Z,1005.63
2023-02-28T07:02:22.068Z,1005.63
2023-02-28T07:03:22.075Z,1005.66
2023-02-28T07:04:22.136Z,1005.64
2023-02-28T07:05:22.037Z,1005.71
2023-02-28T07:06:22.025Z,1005.69
2023-02-28T07:07:22.019Z,1005.73
2023-02-28T07:08:22.033Z,1005.69
2023-02-28T07:09:22.000Z,1005.65
2023-02-28T07:10:21.999Z,1005.74
2023-02-28T07:11:21.997Z,1005.74
2023-02-28T07:12:21.982Z,1005.77
2023-02-28T07:13:22.001Z,1005.66
2023-02-28T07:14:21.977Z,1005.80
2023-02-28T07:15:21.951Z,1005.76
2023-02-28T07:16:21.979Z,1005.83
2023-02-28T07:17:21.941Z,1005.74
2023-02-28T07:18:21.956Z,1005.87
2023-02-28T07:19:21.920Z,1005.86
2023-02-28T07:20:21.920Z,1005.81
2023-02-28T07:21:21.915Z,1005.83
2023-02-28T07:22:21.912Z,1005.88
2023-02-28T07:23:21.922Z,1005.89
2023-02-28T07:24:21.895Z,1005.84
2023-02-28T07:25:21.883Z,1005.85
2023-02-28T07:26:21.869Z,1005.79
2023-02-28T07:27:21.864Z,1005.79
2023-02-28T07:28:21.887Z,1005.83
2023-02-28T07:29:21.836Z,1005.81
2023-02-28T07:30:22.844Z,1005.78
2023-02-28T07:31:21.866Z,1005.83
2023-02-28T07:32:21.845Z,1005.83
2023-02-28T07:33:21.927Z,1005.83
2023-02-28T07:34:21.816Z,1005.78
2023-02-28T07:35:21.798Z,1005.82
2023-02-28T07:36:21.787Z,1005.76
2023-02-28T07:37:21.784Z,1005.79
2023-02-28T07:38:21.805Z,1005.82
2023-02-28T07:39:21.768Z,1005.80
2023-02-28T07:40:21.755Z,1005.76
2023-02-28T07:41:21.767Z,1005.80
2023-02-28T07:42:21.748Z,1005.73
2023-02-28T07:43:21.763Z,1005.75
2023-02-28T07:44:21.726Z,1005.83
2023-02-28T07:45:21.725Z,1005.81
2023-02-28T07:46:21.719Z,1005.82
2023-02-28T07:47:23.176Z,1005.81
2023-02-28T07:48:21.737Z,1005.74
2023-02-28T07:49:21.699Z,1005.84
2023-02-28T07:50:21.688Z,1005.74
2023-02-28T07:51:21.678Z,1005.77
2023-02-28T07:52:21.668Z,1005.77
2023-02-28T07:53:21.691Z,1005.78
2023-02-28T07:54:21.665Z,1005.82
2023-02-28T07:55:21.648Z,1005.90
2023-02-28T07:56:21.637Z,1005.85
2023-02-28T07:57:21.634Z,1005.80
2023-02-28T07:58:21.647Z,1005.87
2023-02-28T07:59:21.618Z,1005.81
2023-02-28T08:00:21.636Z,1005.86
2023-02-28T08:01:21.671Z,1005.80
2023-02-28T08:02:21.595Z,1005.86
2023-02-28T08:03:21.614Z,1005.78
2023-02-28T08:04:21.586Z,1005.81
2023-02-28T08:05:22.377Z,1005.83
2023-02-28T08:06:22.562Z,1005.79
2023-02-28T08:07:21.553Z,1005.88
2023-02-28T08:08:21.565Z,1005.83
2023-02-28T08:09:21.538Z,1005.84
2023-02-28T08:10:21.527Z,1005.79
2023-02-28T08:11:21.536Z,1005.80
2023-02-28T08:12:21.515Z,1005.83
2023-02-28T08:13:21.542Z,1005.85
2023-02-28T08:14:21.495Z,1005.86
2023-02-28T08:15:21.489Z,1005.91
2023-02-28T08:16:21.560Z,1005.80
2023-02-28T08:17:21.507Z,1005.83
2023-02-28T08:18:21.494Z,1005.83
2023-02-28T08:19:21.456Z,1005.78
2023-02-28T08:20:21.460Z,1005.86
2023-02-28T08:21:21.479Z,1005.85
2023-02-28T08:22:22.430Z,1005.89
2023-02-28T08:23:21.455Z,1005.90
2023-02-28T08:24:21.418Z,1005.83
2023-02-28T08:25:21.408Z,1006.11
2023-02-28T08:26:21.410Z,1006.09
2023-02-28T08:27:21.392Z,1006.16
2023-02-28T08:28:21.382Z,1006.12
2023-02-28T08:29:21.403Z,1006.11
2023-02-28T08:30:21.379Z,1006.16
2023-02-28T08:31:21.476Z,1005.91
2023-02-28T08:32:29.734Z,1006.10
2023-02-28T08:33:23.372Z,1006.10
2023-02-28T08:34:21.339Z,1006.02
2023-02-28T08:35:21.326Z,1005.97
2023-02-28T08:36:21.360Z,1006.16
2023-02-28T08:37:21.308Z,1006.07
2023-02-28T08:38:21.311Z,1006.00
2023-02-28T08:39:21.321Z,1006.06
2023-02-28T08:40:21.293Z,1006.03
2023-02-28T08:41:21.288Z,1005.98
2023-02-28T08:42:21.267Z,1006.08
2023-02-28T08:43:22.267Z,1006.02
2023-02-28T08:44:21.295Z,1006.23
2023-02-28T08:45:21.249Z,1006.11
2023-02-28T08:46:21.261Z,1006.02
2023-02-28T08:47:21.243Z,1006.01
2023-02-28T08:48:21.236Z,1006.07
2023-02-28T08:49:21.247Z,1005.94
2023-02-28T08:50:21.220Z,1006.03
2023-02-28T08:51:21.203Z,1006.16
2023-02-28T08:52:21.193Z,1006.05
2023-02-28T08:53:21.197Z,1005.99
2023-02-28T08:54:21.218Z,1005.98
2023-02-28T08:55:21.171Z,1005.92
2023-02-28T08:56:21.167Z,1005.90
2023-02-28T08:57:21.189Z,1005.92
2023-02-28T08:58:21.144Z,1005.96
2023-02-28T08:59:21.171Z,1005.91
2023-02-28T09:00:21.133Z,1006.16
2023-02-28T09:01:21.202Z,1005.94
2023-02-28T09:02:21.115Z,1005.96
2023-02-28T09:03:23.172Z,1005.93
2023-02-28T09:04:21.250Z,1005.99
2023-02-28T09:05:21.094Z,1005.98
2023-02-28T09:06:21.083Z,1005.93
2023-02-28T09:07:21.089Z,1006.02
2023-02-28T09:08:21.079Z,1006.05
2023-02-28T09:09:21.096Z,1006.02
2023-02-28T09:10:21.058Z,1005.83
2023-02-28T09:11:21.045Z,1005.98
2023-02-28T09:12:21.039Z,1005.99
2023-02-28T09:13:21.034Z,1005.90
2023-02-28T09:14:21.055Z,1005.86
2023-02-28T09:15:21.015Z,1005.81
2023-02-28T09:16:21.021Z,1005.93
2023-02-28T09:17:20.998Z,1005.94
2023-02-28T09:18:20.994Z,1005.87
2023-02-28T09:19:21.016Z,1005.80
2023-02-28T09:20:20.981Z,1006.00
2023-02-28T09:21:20.972Z,1005.87
2023-02-28T09:22:20.965Z,1005.77
2023-02-28T09:23:20.955Z,1005.88
2023-02-28T09:24:20.975Z,1005.97
2023-02-28T09:25:20.941Z,1006.03
2023-02-28T09:26:20.932Z,1005.74
2023-02-28T09:27:20.928Z,1005.83
2023-02-28T09:28:20.922Z,1005.91
2023-02-28T09:29:20.940Z,1005.79
2023-02-28T09:30:20.928Z,1005.88
2023-02-28T09:31:20.954Z,1005.81
2023-02-28T09:32:20.950Z,1005.83
2023-02-28T09:33:20.882Z,1005.70
2023-02-28T09:34:20.913Z,1005.92
2023-02-28T09:35:20.863Z,1005.82
2023-02-28T09:36:21.137Z,1005.83
2023-02-28T09:37:20.848Z,1005.96
2023-02-28T09:38:20.892Z,1005.85
2023-02-28T09:39:20.854Z,1005.91
2023-02-28T09:40:20.826Z,1005.73
2023-02-28T09:41:20.810Z,1005.88
2023-02-28T09:42:20.804Z,1006.02
2023-02-28T09:43:20.811Z,1006.27
2023-02-28T09:44:20.825Z,1006.04
2023-02-28T09:45:20.797Z,1005.89
2023-02-28T09:46:20.831Z,1005.95
2023-02-28T09:47:20.777Z,1006.07
2023-02-28T09:48:20.757Z,1005.94
2023-02-28T09:49:20.779Z,1005.91
2023-02-28T09:50:20.745Z,1005.89
2023-02-28T09:51:20.740Z,1005.77
2023-02-28T09:52:20.807Z,1006.03
2023-02-28T09:53:20.728Z,1006.05
2023-02-28T09:54:20.761Z,1006.06
2023-02-28T09:55:20.713Z,1006.00
2023-02-28T09:56:20.709Z,1005.99
2023-02-28T09:57:20.699Z,1006.00
2023-02-28T09:58:20.716Z,1006.06
2023-02-28T09:59:20.907Z,1006.01
2023-02-28T10:00:20.679Z,1006.30
2023-02-28T10:01:20.698Z,1006.17
2023-02-28T10:02:20.659Z,1006.16
2023-02-28T10:03:20.651Z,1005.94
2023-02-28T10:04:20.723Z,1005.98
2023-02-28T10:05:20.657Z,1005.81
2023-02-28T10:06:20.657Z,1005.94
2023-02-28T10:07:20.719Z,1005.84
2023-02-28T10:08:20.611Z,1005.92
2023-02-28T10:09:20.614Z,1005.86
2023-02-28T10:10:20.627Z,1005.83
2023-02-28T10:11:20.589Z,1006.02
2023-02-28T10:12:20.582Z,1006.11
2023-02-28T10:13:20.573Z,1006.04
2023-02-28T10:14:20.562Z,1006.14
2023-02-28T10:15:20.580Z,1006.21
2023-02-28T10:16:20.534Z,1006.10
2023-02-28T10:17:20.532Z,1005.97
2023-02-28T10:18:20.530Z,1005.98
2023-02-28T10:19:20.526Z,1006.22
2023-02-28T10:20:20.530Z,1006.29
2023-02-28T10:21:21.498Z,1006.19
2023-02-28T10:22:20.497Z,1005.91
2023-02-28T10:23:20.492Z,1006.04
2023-02-28T10:24:20.489Z,1006.01
2023-02-28T10:25:20.496Z,1005.79
2023-02-28T10:26:20.470Z,1006.17
2023-02-28T10:27:20.461Z,1005.98
2023-02-28T10:28:20.457Z,1006.11
2023-02-28T10:29:20.440Z,1006.13
2023-02-28T10:30:20.532Z,1005.95
2023-02-28T10:31:20.491Z,1005.95
2023-02-28T10:32:20.499Z,1005.94
2023-02-28T10:33:21.483Z,1005.96
2023-02-28T10:34:20.408Z,1005.85
2023-02-28T10:35:20.446Z,1005.94
2023-02-28T10:36:20.486Z,1005.95
2023-02-28T10:37:20.398Z,1006.03
2023-02-28T10:38:20.370Z,1005.90
2023-02-28T10:39:20.369Z,1005.92
2023-02-28T10:40:20.412Z,1005.85
2023-02-28T10:41:20.377Z,1005.87
2023-02-28T10:42:20.338Z,1005.90
2023-02-28T10:43:20.334Z,1005.83
2023-02-28T10:44:20.329Z,1005.90
2023-02-28T10:45:20.346Z,1005.91
2023-02-28T10:46:20.395Z,1005.85
2023-02-28T10:47:20.305Z,1006.26
2023-02-28T10:48:20.295Z,1005.97
2023-02-28T10:49:20.297Z,1006.02
2023-02-28T10:50:20.320Z,1005.88
2023-02-28T10:51:20.271Z,1005.87
2023-02-28T10:52:20.262Z,1005.85
2023-02-28T10:53:20.254Z,1005.81
2023-02-28T10:54:20.257Z,1005.75
2023-02-28T10:55:20.266Z,1005.80
2023-02-28T10:56:20.243Z,1005.73
2023-02-28T10:57:20.240Z,1005.90
2023-02-28T10:58:20.218Z,1005.72
2023-02-28T10:59:20.213Z,1005.79
2023-02-28T11:00:20.247Z,1005.93
2023-02-28T11:01:20.195Z,1005.68
2023-02-28T11:02:20.193Z,1005.67
2023-02-28T11:03:20.179Z,1005.80
2023-02-28T11:04:52.206Z,1005.76
2023-02-28T11:05:20.162Z,1005.79
2023-02-28T11:06:20.160Z,1005.76
2023-02-28T11:07:22.101Z,1005.77
2023-02-28T11:08:20.148Z,1005.83
2023-02-28T11:09:20.133Z,1005.68
2023-02-28T11:10:20.163Z,1005.73
2023-02-28T11:11:20.189Z,1005.66
2023-02-28T11:12:20.123Z,1005.82
2023-02-28T11:13:20.109Z,1005.91
2023-02-28T11:14:20.093Z,1005.76
2023-02-28T11:15:20.129Z,1005.83
2023-02-28T11:16:20.110Z,1005.81
2023-02-28T11:17:20.058Z,1005.76
2023-02-28T11:18:20.170Z,1005.95
2023-02-28T11:19:20.064Z,1005.90
2023-02-28T11:20:20.071Z,1005.90
2023-02-28T11:21:20.028Z,1005.84
2023-02-28T11:22:20.023Z,1005.81
2023-02-28T11:23:20.016Z,1005.77
2023-02-28T11:24:20.008Z,1005.86
2023-02-28T11:25:19.998Z,1005.73
2023-02-28T11:26:20.023Z,1005.70
2023-02-28T11:27:19.981Z,1005.79
2023-02-28T11:28:19.974Z,1005.71
2023-02-28T11:29:19.960Z,1005.65
2023-02-28T11:30:19.949Z,1005.65
2023-02-28T11:31:20.038Z,1005.78
2023-02-28T11:32:20.043Z,1005.72
2023-02-28T11:33:19.937Z,1005.80
2023-02-28T11:34:19.936Z,1005.67
2023-02-28T11:35:19.930Z,1005.46
2023-02-28T11:36:21.249Z,1005.76
2023-02-28T11:37:20.910Z,1005.63
2023-02-28T11:38:19.924Z,1005.70
2023-02-28T11:39:19.910Z,1005.57
2023-02-28T11:40:19.876Z,1005.68
2023-02-28T11:41:19.898Z,1005.67
2023-02-28T11:42:19.873Z,1005.65
2023-02-28T11:43:19.854Z,1005.74
2023-02-28T11:44:19.847Z,1005.64
2023-02-28T11:45:19.865Z,1005.53
2023-02-28T11:46:20.946Z,1005.88
2023-02-28T11:47:19.841Z,1005.54
2023-02-28T11:48:19.818Z,1005.59
2023-02-28T11:49:19.810Z,1005.56
2023-02-28T11:50:19.806Z,1005.43
2023-02-28T11:51:19.819Z,1005.48
2023-02-28T11:52:19.782Z,1005.37
2023-02-28T11:53:19.773Z,1005.51
2023-02-28T11:54:19.778Z,1005.62
2023-02-28T11:55:19.775Z,1005.50
2023-02-28T11:56:20.021Z,1005.54
2023-02-28T11:57:19.748Z,1005.61
2023-02-28T11:58:19.743Z,1005.34
2023-02-28T11:59:19.737Z,1005.43
2023-02-28T12:00:19.749Z,1005.45
2023-02-28T12:01:20.034Z,1005.44
2023-02-28T12:02:19.738Z,1005.40
2023-02-28T12:03:19.764Z,1005.43
2023-02-28T12:04:19.709Z,1005.59
2023-02-28T12:05:19.694Z,1005.52